Time;durP1;ratioP1;P1;durP2;ratioP2;P2;SDS_P1;SDS_P2;PMS_P1;PMS_P2;Temp;Humidity;BMP_temperature;BMP_pressure;BME280_temperature;BME280_humidity;BME280_pressure;Samples;Min_cycle;Max_cycle;Signal;HPM_P1;HPM_P2
2021/10/17 00:00:37;;;;;;;12.07;7.60;;;;;;;;;;5019376;28;20183;-84
2021/10/17 00:03:03;;;;;;;12.15;7.43;;;;;;;;;;5019602;28;21031;-84
2021/10/17 00:05:30;;;;;;;8.15;6.85;;;;;;;;;;5025731;28;20186;-85
2021/10/17 00:07:56;;;;;;;10.88;6.97;;;;;;;;;;5021492;28;20179;-85
2021/10/17 00:10:25;;;;;;;10.15;7.00;;;;;;;;;;5025319;28;20892;-84
2021/10/17 00:12:51;;;;;;;9.38;6.10;;;;;;;;;;5025740;28;20189;-84
2021/10/17 00:15:18;;;;;;;10.48;6.57;;;;;;;;;;5022711;28;20754;-84
2021/10/17 00:17:44;;;;;;;11.32;7.45;;;;;;;;;;5019509;28;20194;-84
2021/10/17 00:20:12;;;;;;;8.38;6.15;;;;;;;;;;5025225;28;20174;-85
2021/10/17 00:22:39;;;;;;;9.52;6.28;;;;;;;;;;5024491;28;20185;-84
2021/10/17 00:25:06;;;;;;;7.93;6.32;;;;;;;;;;5025019;28;20186;-84
2021/10/17 00:27:32;;;;;;;10.40;5.75;;;;;;;;;;5024556;28;20210;-85
2021/10/17 00:29:58;;;;;;;8.70;6.03;;;;;;;;;;5024260;28;20208;-84
2021/10/17 00:32:23;;;;;;;7.47;6.03;;;;;;;;;;5020381;28;20186;-84
2021/10/17 00:34:49;;;;;;;9.90;6.70;;;;;;;;;;5020296;28;20214;-85
2021/10/17 00:37:17;;;;;;;9.45;6.30;;;;;;;;;;5024043;28;20186;-85
2021/10/17 00:39:43;;;;;;;7.38;5.70;;;;;;;;;;5022671;28;20182;-85
2021/10/17 00:42:09;;;;;;;8.80;6.20;;;;;;;;;;5021011;28;20254;-84
2021/10/17 00:44:38;;;;;;;7.40;5.07;;;;;;;;;;5027964;28;20230;-85
2021/10/17 00:47:04;;;;;;;8.65;5.78;;;;;;;;;;5021315;28;20562;-85
2021/10/17 00:49:30;;;;;;;6.65;5.70;;;;;;;;;;5023649;28;20186;-83
2021/10/17 00:51:56;;;;;;;8.85;5.85;;;;;;;;;;5021328;28;20179;-84
2021/10/17 00:54:22;;;;;;;11.98;6.10;;;;;;;;;;5024392;28;20198;-84
2021/10/17 00:56:48;;;;;;;10.50;5.78;;;;;;;;;;5034942;28;20210;-85
2021/10/17 00:59:14;;;;;;;9.35;5.95;;;;;;;;;;5020788;28;20261;-84
2021/10/17 01:01:41;;;;;;;13.07;5.70;;;;;;;;;;5019854;28;20178;-84
2021/10/17 01:04:07;;;;;;;9.30;5.70;;;;;;;;;;5023567;28;20205;-86
2021/10/17 01:06:33;;;;;;;6.63;5.28;;;;;;;;;;5019066;28;20189;-85
2021/10/17 01:08:59;;;;;;;8.27;5.53;;;;;;;;;;5020806;28;20194;-85
2021/10/17 01:11:38;;;;;;;6.85;4.53;;;;;;;;;;5029291;28;20182;-84
2021/10/17 01:14:04;;;;;;;5.45;4.20;;;;;;;;;;5024108;28;20201;-84
2021/10/17 01:16:30;;;;;;;6.35;4.53;;;;;;;;;;5020606;28;20242;-84
2021/10/17 01:18:56;;;;;;;9.55;5.50;;;;;;;;;;5030659;28;20214;-85
2021/10/17 01:21:25;;;;;;;10.10;4.65;;;;;;;;;;5016954;28;20178;-85
2021/10/17 01:23:51;;;;;;;7.05;4.80;;;;;;;;;;5018865;28;20190;-85
2021/10/17 01:26:17;;;;;;;4.68;3.60;;;;;;;;;;5018659;28;20205;-86
2021/10/17 01:28:43;;;;;;;7.57;5.07;;;;;;;;;;5018661;28;20213;-85
2021/10/17 01:31:09;;;;;;;8.60;4.40;;;;;;;;;;5022505;28;20528;-86
2021/10/17 01:33:35;;;;;;;8.75;4.72;;;;;;;;;;5022087;28;20426;-86
2021/10/17 01:36:01;;;;;;;5.25;4.18;;;;;;;;;;5024394;28;20183;-86
2021/10/17 01:38:27;;;;;;;5.93;5.10;;;;;;;;;;5019197;28;20181;-85
2021/10/17 01:40:53;;;;;;;6.75;4.40;;;;;;;;;;5034052;28;20894;-86
2021/10/17 01:43:19;;;;;;;6.30;4.40;;;;;;;;;;5022645;28;20253;-85
2021/10/17 01:45:45;;;;;;;7.57;4.20;;;;;;;;;;5021045;28;20486;-85
2021/10/17 01:48:11;;;;;;;4.90;4.07;;;;;;;;;;5019326;28;20358;-85
2021/10/17 01:50:37;;;;;;;9.35;4.50;;;;;;;;;;5017069;28;20480;-85
2021/10/17 01:53:03;;;;;;;8.98;4.55;;;;;;;;;;5030541;28;20626;-85
2021/10/17 01:55:29;;;;;;;5.20;3.90;;;;;;;;;;5023479;28;20217;-85
2021/10/17 01:57:55;;;;;;;4.00;3.60;;;;;;;;;;5030178;28;20730;-85
2021/10/17 02:00:21;;;;;;;4.83;4.03;;;;;;;;;;5028339;28;20198;-86
2021/10/17 02:02:47;;;;;;;6.13;3.63;;;;;;;;;;5018612;28;20457;-85
2021/10/17 02:05:13;;;;;;;4.78;3.80;;;;;;;;;;5024255;28;20601;-86
2021/10/17 02:07:39;;;;;;;5.63;3.90;;;;;;;;;;5018375;28;20186;-86
2021/10/17 02:10:05;;;;;;;5.65;4.07;;;;;;;;;;5022605;28;20464;-86
2021/10/17 02:12:31;;;;;;;5.25;3.97;;;;;;;;;;5022107;28;20269;-86
2021/10/17 02:14:59;;;;;;;7.40;3.88;;;;;;;;;;5009548;28;20599;-85
2021/10/17 02:17:25;;;;;;;5.80;3.30;;;;;;;;;;5019549;28;20186;-85
2021/10/17 02:19:51;;;;;;;3.95;3.38;;;;;;;;;;5033375;28;20212;-85
2021/10/17 02:22:17;;;;;;;5.03;4.00;;;;;;;;;;5014076;28;20187;-86
2021/10/17 02:24:43;;;;;;;9.87;3.87;;;;;;;;;;5020246;28;20198;-86
2021/10/17 02:27:09;;;;;;;5.65;3.65;;;;;;;;;;5019142;28;20437;-84
2021/10/17 02:29:36;;;;;;;5.60;3.70;;;;;;;;;;5021820;28;20258;-86
2021/10/17 02:32:02;;;;;;;5.55;3.15;;;;;;;;;;5020708;28;20179;-86
2021/10/17 02:34:28;;;;;;;10.20;4.45;;;;;;;;;;5019704;28;20210;-85
2021/10/17 02:36:54;;;;;;;6.30;3.45;;;;;;;;;;5018699;28;20382;-86
2021/10/17 02:39:20;;;;;;;7.70;3.58;;;;;;;;;;5022666;28;20584;-85
2021/10/17 02:41:46;;;;;;;7.82;3.55;;;;;;;;;;5027618;28;20190;-85
2021/10/17 02:44:12;;;;;;;3.60;2.97;;;;;;;;;;5016843;28;20237;-85
2021/10/17 02:46:38;;;;;;;5.57;3.67;;;;;;;;;;5012870;28;20183;-85
2021/10/17 02:49:04;;;;;;;5.72;3.67;;;;;;;;;;5012309;28;20254;-85
2021/10/17 02:51:30;;;;;;;6.05;3.17;;;;;;;;;;5021423;28;20187;-86
2021/10/17 02:53:56;;;;;;;3.88;3.28;;;;;;;;;;5019066;28;20567;-85
2021/10/17 02:56:22;;;;;;;3.75;3.20;;;;;;;;;;5018154;28;20209;-85
2021/10/17 02:58:48;;;;;;;3.75;3.22;;;;;;;;;;5018326;28;20186;-85
2021/10/17 03:01:14;;;;;;;5.18;3.80;;;;;;;;;;5018411;28;20224;-85
2021/10/17 03:03:40;;;;;;;5.13;3.20;;;;;;;;;;5020547;28;20182;-86
2021/10/17 03:06:06;;;;;;;5.95;3.40;;;;;;;;;;5019189;28;20429;-85
2021/10/17 03:08:32;;;;;;;5.32;3.42;;;;;;;;;;5017490;28;20240;-85
2021/10/17 03:10:58;;;;;;;6.87;3.63;;;;;;;;;;5014991;28;20166;-85
2021/10/17 03:13:24;;;;;;;7.00;4.00;;;;;;;;;;5017092;28;20906;-85
2021/10/17 03:15:50;;;;;;;4.57;3.57;;;;;;;;;;5019922;28;20270;-85
2021/10/17 03:18:16;;;;;;;6.67;3.40;;;;;;;;;;5021932;28;20437;-86
2021/10/17 03:20:42;;;;;;;5.65;3.30;;;;;;;;;;5017158;28;20445;-86
2021/10/17 03:23:08;;;;;;;4.65;3.33;;;;;;;;;;5018613;28;20196;-86
2021/10/17 03:25:34;;;;;;;6.35;3.30;;;;;;;;;;5022492;28;20197;-86
2021/10/17 03:28:00;;;;;;;3.90;3.10;;;;;;;;;;5017837;28;20195;-85
2021/10/17 03:30:26;;;;;;;4.25;2.90;;;;;;;;;;5022327;28;20198;-85
2021/10/17 03:32:52;;;;;;;5.83;3.40;;;;;;;;;;5008523;28;20194;-85
2021/10/17 03:35:18;;;;;;;4.38;3.30;;;;;;;;;;5022626;28;20528;-86
2021/10/17 03:37:44;;;;;;;5.15;3.65;;;;;;;;;;5019364;28;20237;-84
2021/10/17 03:40:10;;;;;;;6.63;3.63;;;;;;;;;;5016808;28;20186;-85
2021/10/17 03:42:36;;;;;;;4.40;3.40;;;;;;;;;;5016322;28;20218;-85
2021/10/17 03:45:02;;;;;;;4.95;3.40;;;;;;;;;;5019976;28;20219;-85
2021/10/17 03:47:28;;;;;;;5.70;3.53;;;;;;;;;;5027130;28;20190;-85
2021/10/17 03:49:54;;;;;;;4.22;3.60;;;;;;;;;;5032998;28;20265;-84
2021/10/17 03:52:20;;;;;;;5.10;4.68;;;;;;;;;;5023354;28;20191;-84
2021/10/17 03:54:46;;;;;;;6.97;3.30;;;;;;;;;;5021505;28;20213;-85
2021/10/17 03:57:12;;;;;;;5.35;3.95;;;;;;;;;;5022803;28;20185;-84
2021/10/17 03:59:38;;;;;;;4.45;3.75;;;;;;;;;;5026280;28;20175;-85
2021/10/17 04:02:04;;;;;;;4.75;3.35;;;;;;;;;;5019592;28;20221;-84
2021/10/17 04:04:30;;;;;;;3.85;3.38;;;;;;;;;;5020342;28;20187;-85
2021/10/17 04:06:56;;;;;;;7.35;3.72;;;;;;;;;;5027821;28;20239;-85
2021/10/17 04:09:22;;;;;;;4.33;3.93;;;;;;;;;;5025980;28;20192;-85
2021/10/17 04:11:48;;;;;;;4.17;3.40;;;;;;;;;;5017413;28;20430;-85
2021/10/17 04:14:14;;;;;;;6.10;4.43;;;;;;;;;;5021167;28;20977;-85
2021/10/17 04:16:41;;;;;;;5.30;3.35;;;;;;;;;;5024493;28;20174;-84
2021/10/17 04:19:07;;;;;;;3.30;3.00;;;;;;;;;;5024888;28;20190;-84
2021/10/17 04:21:32;;;;;;;8.10;4.40;;;;;;;;;;5025056;28;20194;-85
2021/10/17 04:23:58;;;;;;;8.83;3.90;;;;;;;;;;5023583;28;20195;-85
2021/10/17 04:26:24;;;;;;;6.57;3.60;;;;;;;;;;5029174;28;20464;-84
2021/10/17 04:28:50;;;;;;;4.47;3.30;;;;;;;;;;5028215;28;20246;-85
2021/10/17 04:31:16;;;;;;;5.53;3.70;;;;;;;;;;5025261;28;20456;-85
2021/10/17 04:33:42;;;;;;;5.30;4.47;;;;;;;;;;5020766;28;20286;-86
2021/10/17 04:36:09;;;;;;;5.35;3.95;;;;;;;;;;5024332;28;20186;-86
2021/10/17 04:38:35;;;;;;;6.47;4.00;;;;;;;;;;5029734;28;20171;-85
2021/10/17 04:41:02;;;;;;;5.95;4.10;;;;;;;;;;5025436;28;20181;-85
2021/10/17 04:43:28;;;;;;;5.18;3.78;;;;;;;;;;5023471;28;20232;-85
2021/10/17 04:45:54;;;;;;;5.15;4.50;;;;;;;;;;5023716;28;20315;-85
2021/10/17 04:48:20;;;;;;;4.78;3.50;;;;;;;;;;5025005;28;20187;-85
2021/10/17 04:50:46;;;;;;;5.53;4.85;;;;;;;;;;5024567;28;20202;-86
2021/10/17 04:53:11;;;;;;;4.40;3.75;;;;;;;;;;5022014;28;20183;-85
2021/10/17 04:55:37;;;;;;;4.38;3.67;;;;;;;;;;5023378;28;20233;-85
2021/10/17 04:58:05;;;;;;;5.47;4.50;;;;;;;;;;5025436;28;20273;-85
2021/10/17 05:00:31;;;;;;;5.07;3.70;;;;;;;;;;5022412;28;20178;-85
2021/10/17 05:02:57;;;;;;;5.95;3.92;;;;;;;;;;5021549;28;20190;-84
2021/10/17 05:05:23;;;;;;;4.63;3.88;;;;;;;;;;5019963;28;20225;-85
2021/10/17 05:07:48;;;;;;;5.07;3.95;;;;;;;;;;5023857;28;20180;-86
2021/10/17 05:10:14;;;;;;;4.60;4.10;;;;;;;;;;5023800;28;20217;-85
2021/10/17 05:12:40;;;;;;;3.60;3.30;;;;;;;;;;5022639;28;20465;-85
2021/10/17 05:15:07;;;;;;;4.57;3.60;;;;;;;;;;5024113;28;20518;-85
2021/10/17 05:17:33;;;;;;;5.18;4.00;;;;;;;;;;5020205;28;20205;-85
2021/10/17 05:19:59;;;;;;;4.40;3.65;;;;;;;;;;5020357;28;20194;-86
2021/10/17 05:22:25;;;;;;;5.82;4.20;;;;;;;;;;5019471;28;20237;-85
2021/10/17 05:24:50;;;;;;;7.65;5.25;;;;;;;;;;5023831;28;20195;-86
2021/10/17 05:27:16;;;;;;;4.97;4.30;;;;;;;;;;5024055;28;20187;-85
2021/10/17 05:29:42;;;;;;;5.03;4.55;;;;;;;;;;5022752;28;20257;-85
2021/10/17 05:32:08;;;;;;;5.72;4.38;;;;;;;;;;5025649;28;20182;-85
2021/10/17 05:34:34;;;;;;;5.15;4.20;;;;;;;;;;5020243;28;20203;-85
2021/10/17 05:37:00;;;;;;;4.30;3.90;;;;;;;;;;5023140;28;20198;-85
2021/10/17 05:39:26;;;;;;;11.07;4.53;;;;;;;;;;5023832;28;20186;-85
2021/10/17 05:41:52;;;;;;;6.73;4.13;;;;;;;;;;5018983;28;20210;-85
2021/10/17 05:44:18;;;;;;;4.60;3.55;;;;;;;;;;5020125;28;20457;-85
2021/10/17 05:46:44;;;;;;;7.00;4.60;;;;;;;;;;5019459;28;20257;-84
2021/10/17 05:49:10;;;;;;;8.73;4.72;;;;;;;;;;5018855;28;20191;-85
2021/10/17 05:51:36;;;;;;;5.60;4.95;;;;;;;;;;5021449;28;20249;-85
2021/10/17 05:54:02;;;;;;;5.00;4.50;;;;;;;;;;5022693;28;20217;-85
2021/10/17 05:56:28;;;;;;;12.50;4.47;;;;;;;;;;5019198;28;20410;-85
2021/10/17 05:58:54;;;;;;;5.57;4.53;;;;;;;;;;5020024;28;20193;-85
2021/10/17 06:01:20;;;;;;;7.83;5.00;;;;;;;;;;5018247;28;20187;-85
2021/10/17 06:03:46;;;;;;;4.22;3.55;;;;;;;;;;5020868;28;20434;-86
2021/10/17 06:06:15;;;;;;;5.60;4.35;;;;;;;;;;5017486;28;20218;-84
2021/10/17 06:08:41;;;;;;;5.18;4.20;;;;;;;;;;5023101;28;20194;-85
2021/10/17 06:11:07;;;;;;;5.60;4.28;;;;;;;;;;5021518;28;20178;-85
2021/10/17 06:13:35;;;;;;;6.65;4.50;;;;;;;;;;5013178;28;20250;-85
2021/10/17 06:16:01;;;;;;;5.38;4.80;;;;;;;;;;5018752;28;20206;-85
2021/10/17 06:18:28;;;;;;;5.03;4.33;;;;;;;;;;5022885;28;20214;-85
2021/10/17 06:20:54;;;;;;;5.30;4.60;;;;;;;;;;5021838;28;20533;-85
2021/10/17 06:23:20;;;;;;;5.18;4.70;;;;;;;;;;5023605;28;20456;-83
2021/10/17 06:25:46;;;;;;;5.93;4.40;;;;;;;;;;5013962;28;20643;-85
2021/10/17 06:28:12;;;;;;;5.50;4.22;;;;;;;;;;5018378;28;20445;-84
2021/10/17 06:30:38;;;;;;;5.55;4.22;;;;;;;;;;5021125;28;20251;-85
2021/10/17 06:33:03;;;;;;;7.20;4.68;;;;;;;;;;5022474;28;20190;-85
2021/10/17 06:35:29;;;;;;;3.70;3.30;;;;;;;;;;5020640;28;20209;-84
2021/10/17 06:37:55;;;;;;;5.15;4.55;;;;;;;;;;5032375;28;20456;-84
2021/10/17 06:40:21;;;;;;;4.97;4.47;;;;;;;;;;5020352;28;20193;-84
2021/10/17 06:42:47;;;;;;;6.22;4.50;;;;;;;;;;5021552;28;20194;-85
2021/10/17 06:45:13;;;;;;;6.82;4.55;;;;;;;;;;5023078;28;20308;-86
2021/10/17 06:47:39;;;;;;;5.82;4.88;;;;;;;;;;5027398;28;21102;-86
2021/10/17 06:50:06;;;;;;;5.13;4.30;;;;;;;;;;5020770;28;20258;-86
2021/10/17 06:52:31;;;;;;;5.80;4.72;;;;;;;;;;5017850;28;20190;-86
2021/10/17 06:54:57;;;;;;;5.60;4.90;;;;;;;;;;5017271;28;20210;-85
2021/10/17 06:57:23;;;;;;;6.72;4.53;;;;;;;;;;5020150;28;20483;-85
2021/10/17 06:59:49;;;;;;;7.55;5.53;;;;;;;;;;5009520;28;20183;-85
2021/10/17 07:02:15;;;;;;;5.53;5.00;;;;;;;;;;5016540;28;20170;-86
2021/10/17 07:04:41;;;;;;;6.70;4.43;;;;;;;;;;5012727;28;21041;-84
2021/10/17 07:07:07;;;;;;;6.67;4.73;;;;;;;;;;5025825;28;20195;-85
2021/10/17 07:09:33;;;;;;;7.20;5.93;;;;;;;;;;5018165;28;20446;-86
2021/10/17 07:11:59;;;;;;;6.28;5.38;;;;;;;;;;5018882;28;20189;-86
2021/10/17 07:14:25;;;;;;;7.63;5.80;;;;;;;;;;5017407;28;20213;-85
2021/10/17 07:16:51;;;;;;;5.78;4.88;;;;;;;;;;5021518;28;20425;-85
2021/10/17 07:19:17;;;;;;;5.78;5.00;;;;;;;;;;5022389;28;20214;-85
2021/10/17 07:21:43;;;;;;;7.05;6.13;;;;;;;;;;5019808;28;20576;-85
2021/10/17 07:24:09;;;;;;;7.15;6.13;;;;;;;;;;5019252;28;20189;-85
2021/10/17 07:26:35;;;;;;;11.02;6.57;;;;;;;;;;5023776;28;20427;-85
2021/10/17 07:29:01;;;;;;;7.28;5.63;;;;;;;;;;5015253;28;20194;-86
2021/10/17 07:31:27;;;;;;;7.95;5.80;;;;;;;;;;5014838;28;20182;-86
2021/10/17 07:33:53;;;;;;;6.63;5.70;;;;;;;;;;5015161;28;20195;-85
2021/10/17 07:36:19;;;;;;;7.72;5.85;;;;;;;;;;5018771;28;20333;-87
2021/10/17 07:38:45;;;;;;;9.63;6.30;;;;;;;;;;5026559;28;20187;-87
2021/10/17 07:41:11;;;;;;;7.03;5.32;;;;;;;;;;5026548;28;20181;-87
2021/10/17 07:43:37;;;;;;;7.18;5.57;;;;;;;;;;5020482;28;20186;-86
2021/10/17 07:46:03;;;;;;;7.00;6.07;;;;;;;;;;5021762;28;20187;-87
2021/10/17 07:48:31;;;;;;;7.85;6.78;;;;;;;;;;5024858;28;20573;-86
2021/10/17 07:50:57;;;;;;;7.97;7.05;;;;;;;;;;5025386;28;20199;-88
2021/10/17 07:53:23;;;;;;;8.20;6.25;;;;;;;;;;5029375;28;20174;-86
2021/10/17 07:55:49;;;;;;;11.82;8.60;;;;;;;;;;5021936;28;20202;-87
2021/10/17 07:58:15;;;;;;;10.20;9.15;;;;;;;;;;5019408;28;20183;-88
2021/10/17 08:00:41;;;;;;;12.10;9.90;;;;;;;;;;5024278;28;20780;-89
2021/10/17 08:03:07;;;;;;;11.10;9.98;;;;;;;;;;5026533;28;20182;-88
2021/10/17 08:05:33;;;;;;;11.35;10.10;;;;;;;;;;5021352;28;20204;-91
2021/10/17 08:07:59;;;;;;;12.40;10.03;;;;;;;;;;5022421;28;20182;-89
2021/10/17 08:10:25;;;;;;;13.48;10.75;;;;;;;;;;5026699;28;20937;-90
2021/10/17 08:12:51;;;;;;;10.55;9.43;;;;;;;;;;5022280;28;20237;-87
2021/10/17 08:15:17;;;;;;;13.35;10.68;;;;;;;;;;5023789;28;20359;-87
2021/10/17 08:17:43;;;;;;;13.77;10.45;;;;;;;;;;5024955;28;20929;-88
2021/10/17 08:20:09;;;;;;;13.52;11.02;;;;;;;;;;5022361;28;20217;-88
2021/10/17 08:22:36;;;;;;;14.98;11.93;;;;;;;;;;5024333;28;20273;-87
2021/10/17 08:25:02;;;;;;;19.58;11.05;;;;;;;;;;5018828;28;20286;-87
2021/10/17 08:27:28;;;;;;;18.30;12.13;;;;;;;;;;5030089;28;20183;-86
2021/10/17 08:29:54;;;;;;;26.05;11.60;;;;;;;;;;5025665;28;20253;-87
2021/10/17 08:32:20;;;;;;;12.32;10.88;;;;;;;;;;5019082;28;20185;-84
2021/10/17 08:34:46;;;;;;;14.25;11.43;;;;;;;;;;5015828;28;20582;-86
2021/10/17 08:37:12;;;;;;;14.18;11.38;;;;;;;;;;5012190;28;20190;-87
2021/10/17 08:39:39;;;;;;;17.95;12.45;;;;;;;;;;5022259;28;20269;-89
2021/10/17 08:42:05;;;;;;;15.70;12.25;;;;;;;;;;5024858;28;20186;-87
2021/10/17 08:44:31;;;;;;;13.13;10.98;;;;;;;;;;5018330;28;20233;-87
2021/10/17 08:46:59;;;;;;;11.70;10.40;;;;;;;;;;5024603;28;20190;-86
2021/10/17 08:49:26;;;;;;;13.65;10.20;;;;;;;;;;5021444;28;20453;-88
2021/10/17 08:51:52;;;;;;;13.02;11.40;;;;;;;;;;5020620;28;20186;-87
2021/10/17 08:54:18;;;;;;;11.85;10.25;;;;;;;;;;5023963;28;20198;-88
2021/10/17 08:56:44;;;;;;;11.63;10.48;;;;;;;;;;5020064;28;20271;-88
2021/10/17 08:59:10;;;;;;;12.70;10.88;;;;;;;;;;5025825;28;20179;-87
2021/10/17 09:01:36;;;;;;;16.80;10.82;;;;;;;;;;5020935;28;20194;-88
2021/10/17 09:04:05;;;;;;;15.75;11.52;;;;;;;;;;5020910;28;20183;-86
2021/10/17 09:06:36;;;;;;;15.07;11.50;;;;;;;;;;5020847;28;20185;-89
2021/10/17 09:09:16;;;;;;;16.05;11.15;;;;;;;;;;5024174;28;20179;-87
2021/10/17 09:11:44;;;;;;;15.68;11.18;;;;;;;;;;5018290;28;20194;-88
2021/10/17 09:14:18;;;;;;;15.95;10.32;;;;;;;;;;5024500;28;20289;-87
2021/10/17 09:16:45;;;;;;;13.70;9.93;;;;;;;;;;5021036;28;20187;-88
2021/10/17 09:19:13;;;;;;;16.83;11.50;;;;;;;;;;5021369;28;20183;-87
2021/10/17 09:21:53;;;;;;;10.60;9.50;;;;;;;;;;5022018;28;20190;-88
2021/10/17 09:24:29;;;;;;;14.10;8.57;;;;;;;;;;5035859;28;20194;-87
2021/10/17 09:27:14;;;;;;;8.63;7.75;;;;;;;;;;5020379;28;20678;-86
2021/10/17 09:29:42;;;;;;;12.40;7.70;;;;;;;;;;5018450;28;20170;-89
2021/10/17 09:32:12;;;;;;;13.02;8.05;;;;;;;;;;5023040;28;20190;-90
2021/10/17 09:34:39;;;;;;;11.02;7.90;;;;;;;;;;5021359;28;20293;-87
2021/10/17 09:37:09;;;;;;;10.15;7.50;;;;;;;;;;5021720;28;20201;-87
2021/10/17 09:39:38;;;;;;;10.07;6.30;;;;;;;;;;5018965;28;20445;-88
2021/10/17 09:42:05;;;;;;;6.20;5.55;;;;;;;;;;5014446;28;20175;-86
2021/10/17 09:44:39;;;;;;;6.50;5.60;;;;;;;;;;5017954;28;20226;-87
2021/10/17 09:47:05;;;;;;;8.80;5.40;;;;;;;;;;5023214;28;20179;-86
2021/10/17 09:49:31;;;;;;;5.38;4.88;;;;;;;;;;5014948;28;20190;-87
2021/10/17 09:52:10;;;;;;;6.80;4.55;;;;;;;;;;5018789;28;20222;-88
2021/10/17 09:54:37;;;;;;;6.32;4.80;;;;;;;;;;5028060;28;20198;-87
2021/10/17 09:57:07;;;;;;;5.45;4.90;;;;;;;;;;5036012;28;20265;-89
2021/10/17 09:59:33;;;;;;;8.02;5.38;;;;;;;;;;5017342;28;20175;-89
2021/10/17 10:01:59;;;;;;;6.70;5.20;;;;;;;;;;5019696;28;20167;-89
2021/10/17 10:04:26;;;;;;;4.60;3.75;;;;;;;;;;5018789;28;20213;-89
2021/10/17 10:06:53;;;;;;;4.72;4.38;;;;;;;;;;5019580;28;20230;-88
2021/10/17 10:09:20;;;;;;;4.72;3.40;;;;;;;;;;5018843;28;20285;-87
2021/10/17 10:11:47;;;;;;;4.65;3.50;;;;;;;;;;5022434;28;20197;-87
2021/10/17 10:14:13;;;;;;;3.30;2.92;;;;;;;;;;5023741;28;20214;-86
2021/10/17 10:16:41;;;;;;;6.43;2.83;;;;;;;;;;5018635;28;20170;-88
2021/10/17 10:19:09;;;;;;;6.18;3.88;;;;;;;;;;5018385;28;20187;-86
2021/10/17 10:21:36;;;;;;;5.75;3.35;;;;;;;;;;5022007;28;20194;-87
2021/10/17 10:24:02;;;;;;;5.30;3.47;;;;;;;;;;5023621;28;20186;-88
2021/10/17 10:26:30;;;;;;;4.05;2.85;;;;;;;;;;5017528;28;20257;-89
2021/10/17 10:28:56;;;;;;;4.50;3.35;;;;;;;;;;5018885;28;20194;-87
2021/10/17 10:31:40;;;;;;;3.80;3.03;;;;;;;;;;5023273;28;20186;-85
2021/10/17 10:34:07;;;;;;;7.68;4.07;;;;;;;;;;5015474;28;20182;-85
2021/10/17 10:36:44;;;;;;;5.65;4.13;;;;;;;;;;5018163;28;20202;-86
2021/10/17 10:39:13;;;;;;;4.53;2.90;;;;;;;;;;5018973;28;20192;-85
2021/10/17 10:41:51;;;;;;;4.70;3.10;;;;;;;;;;5012990;28;20270;-85
2021/10/17 10:44:40;;;;;;;4.72;3.08;;;;;;;;;;5011143;28;20703;-87
2021/10/17 10:47:26;;;;;;;6.97;3.55;;;;;;;;;;5029434;28;20277;-87
2021/10/17 10:49:53;;;;;;;2.78;2.10;;;;;;;;;;5034470;28;20209;-86
2021/10/17 10:52:22;;;;;;;4.95;3.20;;;;;;;;;;5017886;28;20196;-86
2021/10/17 10:54:48;;;;;;;3.30;3.00;;;;;;;;;;5022362;28;20233;-84
2021/10/17 10:57:22;;;;;;;3.97;2.90;;;;;;;;;;5021251;28;20195;-89
2021/10/17 11:00:03;;;;;;;3.55;2.28;;;;;;;;;;5017435;28;20903;-83
2021/10/17 11:02:29;;;;;;;2.95;2.65;;;;;;;;;;5019457;28;20176;-87
2021/10/17 11:04:55;;;;;;;3.65;2.60;;;;;;;;;;5023239;28;20196;-84
2021/10/17 11:07:28;;;;;;;2.90;2.50;;;;;;;;;;5018336;28;20202;-83
2021/10/17 11:09:54;;;;;;;3.08;1.98;;;;;;;;;;5018413;28;20199;-84
2021/10/17 11:12:39;;;;;;;3.30;2.30;;;;;;;;;;5037080;28;20280;-84
2021/10/17 11:15:06;;;;;;;2.42;2.22;;;;;;;;;;5017789;28;20274;-85
2021/10/17 11:17:32;;;;;;;3.25;2.20;;;;;;;;;;5020333;28;20236;-84
2021/10/17 11:19:58;;;;;;;2.70;2.33;;;;;;;;;;5017193;28;20186;-84
2021/10/17 11:22:24;;;;;;;2.53;1.95;;;;;;;;;;5019192;28;20182;-86
2021/10/17 11:24:54;;;;;;;2.45;2.25;;;;;;;;;;5021163;28;20258;-86
2021/10/17 11:27:21;;;;;;;2.70;2.50;;;;;;;;;;5019033;28;20186;-86
2021/10/17 11:29:49;;;;;;;3.30;2.75;;;;;;;;;;5021674;28;20219;-83
2021/10/17 11:32:17;;;;;;;5.18;2.33;;;;;;;;;;5022516;28;20178;-83
2021/10/17 11:35:00;;;;;;;3.00;2.80;;;;;;;;;;5021135;28;20296;-85
2021/10/17 11:37:28;;;;;;;3.22;2.35;;;;;;;;;;5015027;28;20193;-86
2021/10/17 11:39:55;;;;;;;3.10;2.55;;;;;;;;;;5016407;28;20212;-85
2021/10/17 11:42:22;;;;;;;3.28;2.50;;;;;;;;;;5009404;28;20171;-85
2021/10/17 11:44:48;;;;;;;5.30;2.85;;;;;;;;;;5018044;28;20231;-85
2021/10/17 11:47:16;;;;;;;4.60;2.90;;;;;;;;;;5014727;28;20189;-88
2021/10/17 11:49:42;;;;;;;5.60;2.80;;;;;;;;;;5020169;28;20198;-85
2021/10/17 11:52:11;;;;;;;4.43;3.45;;;;;;;;;;5010415;28;20207;-85
2021/10/17 11:54:45;;;;;;;6.50;3.40;;;;;;;;;;5008787;28;20210;-82
2021/10/17 11:57:27;;;;;;;2.83;2.63;;;;;;;;;;5017580;28;20183;-81
2021/10/17 11:59:57;;;;;;;3.95;2.42;;;;;;;;;;5019388;28;20203;-83
2021/10/17 12:02:33;;;;;;;4.38;2.75;;;;;;;;;;5023112;28;20199;-83
2021/10/17 12:04:59;;;;;;;2.90;2.67;;;;;;;;;;5029462;28;20186;-84
2021/10/17 12:07:25;;;;;;;4.25;2.60;;;;;;;;;;5019893;28;20674;-83
2021/10/17 12:09:51;;;;;;;4.78;2.67;;;;;;;;;;5017164;28;20221;-84
2021/10/17 12:12:26;;;;;;;3.28;2.72;;;;;;;;;;5033912;28;20242;-88
2021/10/17 12:15:01;;;;;;;2.90;2.25;;;;;;;;;;5014884;28;20210;-85
2021/10/17 12:17:27;;;;;;;3.83;2.65;;;;;;;;;;5018559;28;20542;-87
2021/10/17 12:20:06;;;;;;;4.90;3.00;;;;;;;;;;5020959;28;20221;-82
2021/10/17 12:22:32;;;;;;;5.60;3.70;;;;;;;;;;5013941;28;20463;-87
2021/10/17 12:24:59;;;;;;;3.20;2.92;;;;;;;;;;5013580;28;20194;-88
2021/10/17 12:27:36;;;;;;;3.20;2.92;;;;;;;;;;5036360;28;20187;-83
2021/10/17 12:30:09;;;;;;;3.03;2.38;;;;;;;;;;5023082;28;20647;-86
2021/10/17 12:32:52;;;;;;;3.88;2.70;;;;;;;;;;5020992;28;20198;-87
2021/10/17 12:35:35;;;;;;;3.35;2.70;;;;;;;;;;5009037;28;20206;-88
2021/10/17 12:38:14;;;;;;;4.07;2.63;;;;;;;;;;5025325;28;20417;-86
2021/10/17 12:40:51;;;;;;;2.88;2.53;;;;;;;;;;5022045;28;20186;-86
2021/10/17 12:43:22;;;;;;;3.17;2.70;;;;;;;;;;5020264;28;20244;-87
2021/10/17 12:45:49;;;;;;;2.88;2.67;;;;;;;;;;5022164;28;20309;-84
2021/10/17 12:48:17;;;;;;;3.67;3.05;;;;;;;;;;5024173;28;20190;-82
2021/10/17 12:50:44;;;;;;;4.47;2.67;;;;;;;;;;5018694;28;20187;-87
2021/10/17 12:53:11;;;;;;;3.38;3.08;;;;;;;;;;5021344;28;20192;-86
2021/10/17 12:55:43;;;;;;;3.10;2.47;;;;;;;;;;5019855;28;20210;-87
2021/10/17 12:58:13;;;;;;;2.97;2.40;;;;;;;;;;5020705;28;20267;-87
2021/10/17 13:00:40;;;;;;;2.47;2.28;;;;;;;;;;5020120;28;20183;-86
2021/10/17 13:03:16;;;;;;;3.75;2.97;;;;;;;;;;5024485;28;20213;-84
2021/10/17 13:05:49;;;;;;;3.55;2.97;;;;;;;;;;5020030;28;20272;-86
2021/10/17 13:08:15;;;;;;;4.55;2.65;;;;;;;;;;5021411;28;20170;-88
2021/10/17 13:10:41;;;;;;;2.95;2.53;;;;;;;;;;5021354;28;20182;-88
2021/10/17 13:13:23;;;;;;;3.38;2.33;;;;;;;;;;5018550;28;20191;-78
2021/10/17 13:15:55;;;;;;;3.90;2.75;;;;;;;;;;5021225;28;20241;-83
2021/10/17 13:18:22;;;;;;;3.88;3.00;;;;;;;;;;5036189;28;20360;-86
2021/10/17 13:20:48;;;;;;;3.45;2.60;;;;;;;;;;5034480;28;20191;-85
2021/10/17 13:23:17;;;;;;;3.90;2.30;;;;;;;;;;5021172;28;20174;-85
2021/10/17 13:25:46;;;;;;;3.33;3.03;;;;;;;;;;5015321;28;20187;-88
2021/10/17 13:28:12;;;;;;;4.00;2.88;;;;;;;;;;5014490;28;20182;-87
2021/10/17 13:30:38;;;;;;;4.93;2.75;;;;;;;;;;5017753;28;20182;-84
2021/10/17 13:33:04;;;;;;;3.58;2.70;;;;;;;;;;5028375;28;20197;-81
2021/10/17 13:35:31;;;;;;;3.42;2.97;;;;;;;;;;5020690;28;20194;-85
2021/10/17 13:37:58;;;;;;;3.47;2.70;;;;;;;;;;5019259;28;20250;-86
2021/10/17 13:40:24;;;;;;;3.17;2.90;;;;;;;;;;5020627;28;20201;-86
2021/10/17 13:42:54;;;;;;;3.45;2.35;;;;;;;;;;5019691;28;20187;-86
2021/10/17 13:45:21;;;;;;;3.30;2.70;;;;;;;;;;5034916;28;20286;-86
2021/10/17 13:47:47;;;;;;;3.33;2.10;;;;;;;;;;5018486;28;20190;-87
2021/10/17 13:50:13;;;;;;;2.45;2.10;;;;;;;;;;5024646;28;20182;-86
2021/10/17 13:52:39;;;;;;;2.63;2.40;;;;;;;;;;5019697;28;20183;-86
2021/10/17 13:55:05;;;;;;;2.38;2.17;;;;;;;;;;5020943;28;20210;-84
2021/10/17 13:57:31;;;;;;;4.40;2.45;;;;;;;;;;5017352;28;20748;-87
2021/10/17 13:59:59;;;;;;;5.72;2.40;;;;;;;;;;5022944;28;20251;-87
2021/10/17 14:02:25;;;;;;;2.50;2.30;;;;;;;;;;5019099;28;20177;-86
2021/10/17 14:04:51;;;;;;;3.13;2.63;;;;;;;;;;5019521;28;20261;-86
2021/10/17 14:07:17;;;;;;;2.50;2.07;;;;;;;;;;5020406;28;20272;-87
2021/10/17 14:09:44;;;;;;;2.73;2.50;;;;;;;;;;5021899;28;20449;-88
2021/10/17 14:12:11;;;;;;;3.63;2.00;;;;;;;;;;5020651;28;20548;-84
2021/10/17 14:14:37;;;;;;;3.47;2.90;;;;;;;;;;5017689;28;20444;-85
2021/10/17 14:17:03;;;;;;;2.87;2.40;;;;;;;;;;5020011;28;20483;-85
2021/10/17 14:19:29;;;;;;;3.03;2.47;;;;;;;;;;5018624;28;20479;-87
2021/10/17 14:21:55;;;;;;;2.30;2.10;;;;;;;;;;5020959;28;20451;-85
2021/10/17 14:24:22;;;;;;;3.30;2.40;;;;;;;;;;5025443;28;20432;-87
2021/10/17 14:26:48;;;;;;;3.07;2.40;;;;;;;;;;5016803;28;20429;-83
2021/10/17 14:29:14;;;;;;;2.27;2.07;;;;;;;;;;5023469;28;20418;-86
2021/10/17 14:31:40;;;;;;;2.50;2.30;;;;;;;;;;5016350;28;20437;-86
2021/10/17 14:34:06;;;;;;;2.83;2.00;;;;;;;;;;5016667;28;20454;-87
2021/10/17 14:36:32;;;;;;;4.93;2.40;;;;;;;;;;5017209;28;20438;-85
2021/10/17 14:38:58;;;;;;;3.50;2.60;;;;;;;;;;5023922;28;20538;-86
2021/10/17 14:41:24;;;;;;;4.13;2.53;;;;;;;;;;5018224;28;20416;-85